createdAt,value
2023-05-04T00:04:34.148Z,65.44
2023-05-04T00:09:37.812Z,65.05
2023-05-04T00:14:41.275Z,65.15
2023-05-04T00:19:46.738Z,65.51
2023-05-04T00:24:50.195Z,64.90
2023-05-04T00:29:53.611Z,65.43
2023-05-04T00:34:58.489Z,65.74
2023-05-04T00:40:02.214Z,65.54
2023-05-04T00:45:06.522Z,65.26
2023-05-04T00:50:13.131Z,65.30
2023-05-04T00:55:16.768Z,65.33
2023-05-04T01:00:20.312Z,65.08
2023-05-04T01:05:28.522Z,65.50
2023-05-04T01:10:36.622Z,65.59
2023-05-04T01:15:40.693Z,65.24
2023-05-04T01:20:45.617Z,64.90
2023-05-04T01:25:56.813Z,64.82
2023-05-04T01:31:01.826Z,64.75
2023-05-04T01:36:05.927Z,65.07
2023-05-04T01:41:10.747Z,64.67
2023-05-04T01:46:14.333Z,64.71
2023-05-04T01:51:17.788Z,64.58
2023-05-04T01:56:24.007Z,64.80
2023-05-04T02:01:27.537Z,64.82
2023-05-04T02:06:31.315Z,65.02
2023-05-04T02:11:36.204Z,64.82
2023-05-04T02:16:40.019Z,64.60
2023-05-04T02:21:43.618Z,65.17
2023-05-04T02:26:48.461Z,64.85
2023-05-04T02:31:51.922Z,65.02
2023-05-04T02:36:55.418Z,64.47
2023-05-04T02:42:00.293Z,64.99
2023-05-04T02:47:03.796Z,65.43
2023-05-04T02:52:07.306Z,64.65
2023-05-04T02:57:12.128Z,64.66
2023-05-04T03:02:15.605Z,64.81
2023-05-04T03:07:19.091Z,65.00
2023-05-04T03:12:24.022Z,65.40
2023-05-04T03:17:27.756Z,64.90
2023-05-04T03:22:31.212Z,64.78
2023-05-04T03:27:36.134Z,64.90
2023-05-04T03:32:39.677Z,64.41
2023-05-04T03:37:43.192Z,65.31
2023-05-04T03:42:48.111Z,64.74
2023-05-04T03:47:51.637Z,64.68
2023-05-04T03:52:55.048Z,64.84
2023-05-04T03:57:59.893Z,64.35
2023-05-04T04:03:03.545Z,64.50
2023-05-04T04:08:07.395Z,64.69
2023-05-04T04:13:12.325Z,64.67
2023-05-04T04:18:15.879Z,64.69
2023-05-04T04:23:19.509Z,64.15
2023-05-04T04:28:24.504Z,64.81
2023-05-04T04:33:28.069Z,64.58
2023-05-04T04:38:31.629Z,65.13
2023-05-04T04:43:36.602Z,64.74
2023-05-04T04:48:40.045Z,64.46
2023-05-04T04:53:43.588Z,64.75
2023-05-04T04:58:48.826Z,64.80
2023-05-04T06:21:58.955Z,64.08
2023-05-04T06:27:02.678Z,64.53
2023-05-04T06:32:07.027Z,64.86
2023-05-04T06:37:13.559Z,65.04
2023-05-04T06:42:18.168Z,64.78
2023-05-04T06:47:21.867Z,64.55
2023-05-04T06:52:29.812Z,65.00
2023-05-04T06:57:33.278Z,64.85
2023-05-04T07:02:36.702Z,65.06
2023-05-04T07:07:41.580Z,64.48
2023-05-04T07:12:45.101Z,65.21
2023-05-04T07:17:48.818Z,64.71
2023-05-04T07:22:57.259Z,65.15
2023-05-04T07:28:01.184Z,64.32
2023-05-04T07:33:04.822Z,64.83
2023-05-04T07:38:09.714Z,64.83
2023-05-04T07:43:13.228Z,65.10
2023-05-04T07:48:18.092Z,64.73
2023-05-04T07:53:25.647Z,64.39
2023-05-04T07:58:29.140Z,65.27
2023-05-04T08:03:32.807Z,64.47
2023-05-04T08:08:37.830Z,64.40
2023-05-04T08:13:41.458Z,64.83
2023-05-04T08:18:44.968Z,64.98
2023-05-04T08:23:49.956Z,64.81
2023-05-04T08:28:53.603Z,65.04
2023-05-04T08:33:57.065Z,64.79
2023-05-04T08:39:01.969Z,65.04
2023-05-04T08:44:08.061Z,64.96
2023-05-04T08:49:11.999Z,65.64
2023-05-04T08:54:17.592Z,64.95
2023-05-04T08:59:21.817Z,64.55
2023-05-04T09:04:29.319Z,65.29
2023-05-04T09:09:35.713Z,65.38
2023-05-04T09:14:39.343Z,65.18
2023-05-04T09:19:44.437Z,65.27
2023-05-04T09:24:49.377Z,64.11
2023-05-04T09:29:55.890Z,64.07
2023-05-04T09:34:59.351Z,64.55
2023-05-04T09:40:04.315Z,64.31
2023-05-04T09:45:09.955Z,63.96
2023-05-04T09:50:18.317Z,63.66
2023-05-04T09:55:27.254Z,63.51
2023-05-04T10:00:30.944Z,63.87
2023-05-04T10:05:34.659Z,63.27
2023-05-04T10:10:40.929Z,64.25
2023-05-04T10:15:52.262Z,63.30
2023-05-04T10:21:08.751Z,63.98
2023-05-04T10:26:33.474Z,64.36
2023-05-04T10:31:41.402Z,64.15
2023-05-04T10:36:44.898Z,63.80
2023-05-04T10:42:04.070Z,63.33
2023-05-04T10:47:08.736Z,63.29
2023-05-04T10:52:16.276Z,64.01
2023-05-04T10:57:21.215Z,63.59
2023-05-04T11:02:25.182Z,63.55
2023-05-04T11:07:36.267Z,63.25
2023-05-04T11:12:41.294Z,63.26
2023-05-04T11:17:48.147Z,63.99
2023-05-04T11:22:51.964Z,63.01
2023-05-04T11:27:57.164Z,63.54
2023-05-04T11:33:01.247Z,63.62
2023-05-04T11:38:05.036Z,63.25
2023-05-04T11:43:11.893Z,63.31
2023-05-04T11:48:16.626Z,63.14
2023-05-04T11:53:23.512Z,63.68
2023-05-04T11:58:28.401Z,63.67
2023-05-04T12:03:48.589Z,64.17
2023-05-04T12:09:03.279Z,64.11
2023-05-04T12:14:09.936Z,63.81
2023-05-04T12:19:13.922Z,64.29
2023-05-04T12:24:17.419Z,63.87
2023-05-04T12:29:22.383Z,64.41
2023-05-04T12:34:25.905Z,63.92
2023-05-04T12:39:32.273Z,64.01
2023-05-04T12:44:37.134Z,64.64
2023-05-04T12:49:40.551Z,63.93
2023-05-04T12:54:44.202Z,64.05
2023-05-04T12:59:49.108Z,63.36
2023-05-04T13:04:52.748Z,63.91
2023-05-04T13:09:56.223Z,64.71
2023-05-04T13:15:01.595Z,64.46
2023-05-04T13:20:06.418Z,64.06
2023-05-04T13:25:10.195Z,63.66
2023-05-04T13:30:15.534Z,63.79
2023-05-04T13:35:19.015Z,64.21
2023-05-04T13:40:22.624Z,64.87
2023-05-04T13:45:27.744Z,64.70
2023-05-04T13:50:31.237Z,64.69
2023-05-04T13:55:34.878Z,64.70
2023-05-04T14:00:39.815Z,64.11
2023-05-04T14:05:43.478Z,65.13
2023-05-04T14:10:47.092Z,65.25
2023-05-04T14:15:52.444Z,64.34
2023-05-04T14:20:56.057Z,63.97
2023-05-04T14:25:59.514Z,64.89
2023-05-04T14:31:08.974Z,64.58
2023-05-04T14:36:12.697Z,65.00
2023-05-04T14:41:16.251Z,65.90
2023-05-04T14:46:21.155Z,65.53
2023-05-04T14:51:26.575Z,65.80
2023-05-04T14:56:30.058Z,65.37
2023-05-04T15:01:35.076Z,65.59
2023-05-04T15:06:38.622Z,65.60
2023-05-04T15:11:42.300Z,65.32
2023-05-04T15:16:47.157Z,64.88
2023-05-04T15:21:50.907Z,66.43
2023-05-04T15:26:54.306Z,66.17
2023-05-04T15:31:59.307Z,65.66
2023-05-04T15:37:02.924Z,65.56
2023-05-04T15:42:06.511Z,65.55
2023-05-04T15:47:12.568Z,65.43
2023-05-04T15:52:16.115Z,66.19
2023-05-04T15:57:19.584Z,65.59
2023-05-04T16:02:24.485Z,66.02
2023-05-04T16:07:27.936Z,65.45
2023-05-04T16:12:31.397Z,65.29
2023-05-04T16:17:36.346Z,65.58
2023-05-04T16:22:40.065Z,65.34
2023-05-04T16:27:43.587Z,65.46
2023-05-04T16:32:48.440Z,65.46
2023-05-04T16:37:52.038Z,64.95
2023-05-04T16:42:55.556Z,65.47
2023-05-04T16:48:01.300Z,65.96
2023-05-04T16:53:04.915Z,65.72
2023-05-04T16:58:08.678Z,65.35
2023-05-04T17:03:13.867Z,66.44
2023-05-04T17:08:17.643Z,65.36
2023-05-04T17:13:21.255Z,66.33
2023-05-04T17:18:26.311Z,66.29
2023-05-04T17:23:29.911Z,65.61
2023-05-04T17:28:33.464Z,66.27
2023-05-04T17:33:38.483Z,66.45
2023-05-04T17:38:42.741Z,65.66
2023-05-04T17:43:46.257Z,65.96
2023-05-04T17:48:52.265Z,66.54
2023-05-04T17:53:55.693Z,65.49
2023-05-04T17:58:59.160Z,65.62
2023-05-04T18:04:04.485Z,65.39
2023-05-04T18:09:07.950Z,66.24
2023-05-04T18:14:11.493Z,66.60
2023-05-04T18:19:23.839Z,66.06
2023-05-04T18:24:27.534Z,65.67
2023-05-04T18:29:32.163Z,65.56
2023-05-04T18:34:37.141Z,66.33
2023-05-04T18:39:40.974Z,65.24
2023-05-04T18:44:44.656Z,66.01
2023-05-04T18:49:52.419Z,66.28
2023-05-04T18:54:56.033Z,66.24
2023-05-04T18:59:59.499Z,66.05
2023-05-04T19:05:04.408Z,66.67
2023-05-04T19:10:09.685Z,65.82
2023-05-04T19:15:13.696Z,65.69
2023-05-04T19:20:19.510Z,65.98
2023-05-04T19:25:34.050Z,66.37
2023-05-04T19:30:38.588Z,65.97
2023-05-04T19:35:43.468Z,65.97
2023-05-04T19:40:46.952Z,65.93
2023-05-04T19:45:51.640Z,66.11
2023-05-04T19:50:56.489Z,66.74
2023-05-04T19:56:00.217Z,66.13
2023-05-04T20:01:03.824Z,66.23
2023-05-04T20:06:08.756Z,66.21
2023-05-04T20:11:13.400Z,66.69
2023-05-04T20:16:16.924Z,66.38
2023-05-04T20:21:21.890Z,65.71
2023-05-04T20:26:25.346Z,66.28
2023-05-04T20:31:28.839Z,66.27
2023-05-04T20:36:34.006Z,66.31
2023-05-04T20:41:38.260Z,67.13
2023-05-04T20:46:41.690Z,66.41
2023-05-04T20:51:46.526Z,67.47
2023-05-04T20:56:49.998Z,66.20
2023-05-04T21:01:53.453Z,66.50
2023-05-04T21:06:59.609Z,66.77
2023-05-04T21:12:03.093Z,67.05
2023-05-04T21:17:07.346Z,67.26
2023-05-04T21:22:12.514Z,66.88
2023-05-04T21:27:15.984Z,66.40
2023-05-04T21:32:19.506Z,66.49
2023-05-04T21:37:24.365Z,66.46
2023-05-04T21:42:27.820Z,66.02
2023-05-04T21:47:32.659Z,66.92
2023-05-04T21:52:37.483Z,67.26
2023-05-04T21:57:41.071Z,66.17
2023-05-04T22:02:44.787Z,66.04
2023-05-04T22:07:50.198Z,66.73
2023-05-04T22:12:53.732Z,66.29
2023-05-04T22:17:57.264Z,67.03
2023-05-04T22:23:02.408Z,65.91
2023-05-04T22:28:06.046Z,66.66
2023-05-04T22:33:09.602Z,66.82
2023-05-04T22:38:14.878Z,67.00
2023-05-04T22:43:18.456Z,67.21
2023-05-04T22:48:21.944Z,66.22
2023-05-04T22:53:26.804Z,67.13
2023-05-04T22:58:30.213Z,66.27
2023-05-04T23:03:33.774Z,67.27
2023-05-04T23:08:38.928Z,66.91
2023-05-04T23:13:42.446Z,66.82
2023-05-04T23:18:47.802Z,66.88
2023-05-04T23:23:53.130Z,66.85
2023-05-04T23:28:56.672Z,66.93
2023-05-04T23:34:00.221Z,66.57
2023-05-04T23:39:05.323Z,66.81
2023-05-04T23:44:08.828Z,67.11
2023-05-04T23:49:12.313Z,66.60
2023-05-04T23:54:17.152Z,66.33
2023-05-04T23:59:20.979Z,67.12
